createdAt,value
2018-06-21T00:02:07.774Z,26.80
2018-06-21T00:04:35.363Z,26.70
2018-06-21T00:07:03.000Z,26.70
2018-06-21T00:09:31.091Z,26.70
2018-06-21T00:11:58.717Z,26.60
2018-06-21T00:14:26.372Z,26.60
2018-06-21T00:16:54.049Z,26.50
2018-06-21T00:19:21.648Z,26.50
2018-06-21T00:21:49.273Z,26.50
2018-06-21T00:24:16.886Z,26.50
2018-06-21T00:26:44.507Z,26.40
2018-06-21T00:29:12.155Z,26.40
2018-06-21T00:31:39.766Z,26.40
2018-06-21T00:34:07.355Z,26.30
2018-06-21T00:36:34.981Z,26.30
2018-06-21T00:39:02.631Z,26.20
2018-06-21T00:41:30.199Z,26.20
2018-06-21T00:43:57.979Z,26.20
2018-06-21T00:46:25.661Z,26.20
2018-06-21T00:48:53.293Z,26.20
2018-06-21T00:51:20.951Z,26.10
2018-06-21T00:53:48.625Z,26.10
2018-06-21T00:56:18.260Z,26.10
2018-06-21T00:58:46.763Z,26.10
2018-06-21T01:01:15.469Z,26.10
2018-06-21T01:03:43.253Z,26.00
2018-06-21T01:06:11.011Z,26.00
2018-06-21T01:08:38.568Z,26.00
2018-06-21T01:11:06.173Z,26.00
2018-06-21T01:13:33.789Z,26.00
2018-06-21T01:16:01.377Z,25.90
2018-06-21T01:20:56.621Z,25.80
2018-06-21T01:23:24.195Z,25.80
2018-06-21T01:25:51.815Z,25.70
2018-06-21T01:28:19.424Z,25.70
2018-06-21T01:30:47.049Z,25.70
2018-06-21T01:33:14.626Z,25.60
2018-06-21T01:35:42.199Z,25.60
2018-06-21T01:38:09.780Z,25.50
2018-06-21T01:40:37.366Z,25.50
2018-06-21T01:43:05.192Z,25.40
2018-06-21T01:45:33.996Z,25.40
2018-06-21T01:48:01.611Z,25.30
2018-06-21T01:50:29.240Z,25.30
2018-06-21T01:52:56.851Z,25.30
2018-06-21T01:55:24.611Z,25.20
2018-06-21T01:57:52.264Z,25.20
2018-06-21T02:00:20.390Z,25.10
2018-06-21T02:02:47.957Z,25.10
2018-06-21T02:05:15.564Z,25.10
2018-06-21T02:07:43.195Z,25.00
2018-06-21T02:10:10.792Z,25.00
2018-06-21T02:12:38.714Z,24.90
2018-06-21T02:15:06.563Z,24.90
2018-06-21T02:17:34.209Z,24.80
2018-06-21T02:20:02.159Z,24.80
2018-06-21T02:22:29.987Z,24.80
2018-06-21T02:24:57.650Z,24.70
2018-06-21T02:27:25.289Z,24.70
2018-06-21T02:29:52.879Z,24.60
2018-06-21T02:32:20.504Z,24.60
2018-06-21T02:34:48.132Z,24.60
2018-06-21T02:37:15.736Z,24.60
2018-06-21T02:39:43.379Z,24.50
2018-06-21T02:42:11.004Z,24.50
2018-06-21T02:44:38.593Z,24.50
2018-06-21T02:47:06.456Z,24.40
2018-06-21T02:49:34.188Z,24.40
2018-06-21T02:52:01.797Z,24.40
2018-06-21T02:54:29.394Z,24.40
2018-06-21T02:56:56.979Z,24.40
2018-06-21T02:59:25.109Z,24.40
2018-06-21T03:01:53.308Z,24.30
2018-06-21T03:04:20.868Z,24.30
2018-06-21T03:06:48.455Z,24.30
2018-06-21T03:09:16.040Z,24.30
2018-06-21T03:11:43.691Z,24.20
2018-06-21T03:14:11.303Z,24.20
2018-06-21T03:16:38.939Z,24.20
2018-06-21T03:19:06.835Z,24.20
2018-06-21T03:21:34.407Z,24.20
2018-06-21T03:24:02.030Z,24.20
2018-06-21T03:26:30.125Z,24.10
2018-06-21T03:28:57.692Z,24.10
2018-06-21T03:31:25.351Z,24.10
2018-06-21T03:33:53.135Z,24.20
2018-06-21T03:36:20.767Z,24.20
2018-06-21T03:38:48.360Z,24.20
2018-06-21T03:41:15.951Z,24.20
2018-06-21T03:43:43.598Z,24.20
2018-06-21T03:46:11.186Z,24.20
2018-06-21T03:48:38.748Z,24.20
2018-06-21T03:51:06.583Z,24.30
2018-06-21T03:53:34.255Z,24.30
2018-06-21T03:56:01.816Z,24.30
2018-06-21T03:58:29.435Z,24.30
2018-06-21T04:00:57.023Z,24.30
2018-06-21T04:03:24.748Z,24.40
2018-06-21T04:05:52.461Z,24.40
2018-06-21T04:08:20.097Z,24.40
2018-06-21T04:10:47.695Z,24.40
2018-06-21T04:13:15.264Z,24.40
2018-06-21T04:15:42.861Z,24.40
2018-06-21T04:18:10.463Z,24.40
2018-06-21T04:20:38.118Z,24.40
2018-06-21T04:23:06.311Z,24.40
2018-06-21T04:25:33.947Z,24.50
2018-06-21T04:28:01.567Z,24.50
2018-06-21T04:30:29.184Z,24.50
2018-06-21T04:32:56.752Z,24.50
2018-06-21T04:35:24.313Z,24.60
2018-06-21T04:37:51.963Z,24.60
2018-06-21T04:42:47.203Z,24.70
2018-06-21T04:45:14.776Z,24.70
2018-06-21T04:47:42.376Z,24.80
2018-06-21T04:50:10.033Z,24.80
2018-06-21T04:52:38.348Z,24.90
2018-06-21T04:55:05.989Z,24.90
2018-06-21T04:57:33.635Z,24.90
2018-06-21T05:00:01.285Z,24.90
2018-06-21T05:02:28.844Z,24.90
2018-06-21T05:04:56.538Z,25.00
2018-06-21T05:07:24.209Z,25.00
2018-06-21T05:09:51.813Z,25.00
2018-06-21T05:14:49.623Z,25.10
2018-06-21T05:17:17.185Z,25.10
2018-06-21T05:19:44.805Z,25.20
2018-06-21T05:24:40.533Z,25.20
2018-06-21T05:27:08.312Z,25.30
2018-06-21T05:29:35.927Z,25.40
2018-06-21T05:32:03.651Z,25.50
2018-06-21T05:34:31.292Z,25.60
2018-06-21T05:36:59.051Z,25.70
2018-06-21T05:39:26.908Z,25.80
2018-06-21T05:41:54.507Z,25.90
2018-06-21T05:44:22.093Z,26.00
2018-06-21T05:46:49.684Z,26.20
2018-06-21T05:49:17.213Z,26.30
2018-06-21T05:51:44.805Z,26.50
2018-06-21T05:54:12.384Z,26.70
2018-06-21T05:56:39.988Z,26.90
2018-06-21T05:59:07.608Z,27.10
2018-06-21T06:01:35.168Z,27.20
2018-06-21T06:04:02.768Z,27.50
2018-06-21T06:06:30.341Z,27.80
2018-06-21T06:11:26.746Z,28.00
2018-06-21T06:13:54.349Z,28.60
2018-06-21T06:18:49.584Z,29.30
2018-06-21T06:21:17.180Z,29.50
2018-06-21T06:23:44.745Z,29.90
2018-06-21T06:26:12.465Z,30.20
2018-06-21T06:28:40.096Z,30.60
2018-06-21T06:31:07.623Z,30.90
2018-06-21T06:33:35.172Z,31.20
2018-06-21T06:36:02.752Z,31.50
2018-06-21T06:38:30.339Z,31.80
2018-06-21T06:40:57.935Z,32.00
2018-06-21T06:43:25.471Z,32.20
2018-06-21T06:45:53.053Z,32.50
2018-06-21T06:48:20.709Z,32.80
2018-06-21T06:50:48.242Z,33.10
2018-06-21T06:53:15.937Z,33.40
2018-06-21T06:55:45.189Z,33.70
2018-06-21T06:58:12.884Z,34.00
2018-06-21T07:00:40.471Z,34.30
2018-06-21T07:03:08.108Z,34.50
2018-06-21T07:05:35.692Z,34.80
2018-06-21T07:08:03.261Z,35.00
2018-06-21T07:10:31.382Z,35.20
2018-06-21T07:12:58.968Z,35.50
2018-06-21T07:15:26.602Z,35.70
2018-06-21T07:17:54.216Z,35.90
2018-06-21T07:22:49.461Z,36.30
2018-06-21T07:25:17.015Z,36.50
2018-06-21T07:27:44.620Z,36.70
2018-06-21T07:30:12.233Z,36.90
2018-06-21T07:32:40.049Z,37.00
2018-06-21T07:35:08.305Z,37.20
2018-06-21T07:37:35.919Z,37.50
2018-06-21T07:40:03.634Z,37.70
2018-06-21T07:42:31.192Z,38.00
2018-06-21T07:44:58.775Z,38.20
2018-06-21T07:47:26.370Z,38.40
2018-06-21T07:49:53.946Z,38.60
2018-06-21T07:52:21.537Z,38.80
2018-06-21T07:59:44.446Z,39.30
2018-06-21T08:02:12.048Z,39.50
2018-06-21T08:04:39.665Z,39.60
2018-06-21T08:07:07.585Z,39.60
2018-06-21T08:09:35.180Z,39.70
2018-06-21T08:12:03.168Z,39.70
2018-06-21T08:16:58.441Z,39.90
2018-06-21T08:19:26.008Z,39.80
2018-06-21T08:21:53.645Z,39.80
2018-06-21T08:26:48.876Z,39.70
2018-06-21T08:29:16.495Z,39.70
2018-06-21T08:31:44.128Z,39.70
2018-06-21T08:34:11.699Z,39.80
2018-06-21T08:36:39.284Z,39.80
2018-06-21T08:39:08.190Z,39.90
2018-06-21T08:41:36.003Z,39.90
2018-06-21T08:44:03.732Z,40.10
2018-06-21T08:46:31.778Z,40.10
2018-06-21T08:48:59.502Z,40.10
2018-06-21T08:53:54.835Z,40.10
2018-06-21T08:56:22.395Z,40.00
2018-06-21T08:58:50.259Z,39.80
2018-06-21T09:01:17.831Z,39.70
2018-06-21T09:03:45.509Z,39.60
2018-06-21T09:06:13.152Z,39.40
2018-06-21T09:08:40.888Z,39.40
2018-06-21T09:11:08.419Z,39.40
2018-06-21T09:13:37.187Z,39.40
2018-06-21T09:16:06.320Z,39.50
2018-06-21T09:18:33.927Z,39.50
2018-06-21T09:21:01.858Z,39.60
2018-06-21T09:23:29.469Z,39.60
2018-06-21T09:25:57.047Z,39.70
2018-06-21T09:28:24.655Z,39.70
2018-06-21T09:30:52.216Z,39.60
2018-06-21T09:35:47.472Z,39.40
2018-06-21T09:38:20.820Z,39.20
2018-06-21T09:40:54.300Z,39.10
2018-06-21T09:43:27.805Z,39.00
2018-06-21T09:46:01.135Z,38.90
2018-06-21T09:48:30.044Z,38.70
2018-06-21T09:50:58.383Z,38.50
2018-06-21T09:53:26.671Z,38.40
2018-06-21T09:55:54.294Z,38.40
2018-06-21T09:58:21.911Z,38.50
2018-06-21T10:00:55.460Z,38.60
2018-06-21T10:03:23.012Z,38.80
2018-06-21T10:05:50.671Z,38.90
2018-06-21T10:08:18.388Z,39.00
2018-06-21T10:10:46.067Z,39.10
2018-06-21T10:13:13.663Z,39.20
2018-06-21T10:15:41.491Z,39.10
2018-06-21T10:18:09.100Z,38.90
2018-06-21T10:20:36.716Z,38.80
2018-06-21T10:23:04.332Z,38.70
2018-06-21T10:25:31.934Z,38.60
2018-06-21T10:50:07.503Z,38.40
2018-06-21T10:52:35.391Z,38.30
2018-06-21T10:55:02.968Z,37.00
2018-06-21T10:57:30.607Z,37.00
2018-06-21T10:59:58.211Z,37.00
2018-06-21T11:02:25.804Z,37.00
2018-06-21T11:04:53.403Z,37.10
2018-06-21T11:07:21.011Z,37.20
2018-06-21T11:12:16.291Z,37.20
2018-06-21T11:14:43.919Z,37.20
2018-06-21T11:17:11.511Z,37.10
2018-06-21T11:19:39.076Z,37.10
2018-06-21T11:22:06.717Z,37.20
2018-06-21T11:24:34.327Z,37.20
2018-06-21T11:27:01.978Z,37.20
2018-06-21T11:29:29.599Z,37.10
2018-06-21T11:31:57.173Z,37.10
2018-06-21T11:34:24.777Z,37.10
2018-06-21T11:36:52.361Z,37.00
2018-06-21T11:39:19.959Z,37.00
2018-06-21T11:41:47.576Z,36.90
2018-06-21T11:44:15.193Z,36.80
2018-06-21T11:46:42.788Z,36.70
2018-06-21T11:49:10.384Z,36.60
2018-06-21T11:51:38.365Z,36.40
2018-06-21T11:54:05.964Z,36.30
2018-06-21T11:56:33.611Z,36.20
2018-06-21T11:59:01.259Z,36.00
2018-06-21T12:01:28.871Z,35.90
2018-06-21T12:03:56.460Z,35.80
2018-06-21T12:08:51.636Z,35.70
2018-06-21T12:11:19.420Z,35.60
2018-06-21T12:13:47.037Z,35.60
2018-06-21T12:16:14.739Z,35.60
2018-06-21T12:18:42.369Z,35.70
2018-06-21T12:21:10.009Z,35.70
2018-06-21T12:23:37.603Z,35.80
2018-06-21T12:26:05.244Z,35.70
2018-06-21T12:28:32.849Z,35.70
2018-06-21T12:31:00.428Z,35.60
2018-06-21T12:33:28.006Z,35.50
2018-06-21T12:35:55.617Z,35.40
2018-06-21T12:38:23.219Z,35.30
2018-06-21T12:40:50.775Z,35.30
2018-06-21T12:43:18.383Z,35.20
2018-06-21T12:45:46.154Z,35.10
2018-06-21T12:48:13.715Z,35.00
2018-06-21T12:50:41.300Z,34.80
2018-06-21T12:53:08.908Z,34.50
2018-06-21T12:55:36.482Z,34.30
2018-06-21T12:58:05.404Z,34.00
2018-06-21T13:00:32.959Z,33.80
2018-06-21T13:03:00.507Z,33.50
2018-06-21T13:05:28.114Z,33.30
2018-06-21T13:07:55.652Z,33.00
2018-06-21T13:10:41.309Z,32.80
2018-06-21T13:13:18.292Z,32.60
2018-06-21T13:18:13.480Z,32.20
2018-06-21T13:20:41.114Z,31.90
2018-06-21T13:23:08.754Z,31.60
2018-06-21T13:25:36.330Z,31.30
2018-06-21T13:28:04.872Z,31.10
2018-06-21T13:30:32.640Z,30.80
2018-06-21T13:33:00.239Z,30.60
2018-06-21T13:35:27.855Z,30.30
2018-06-21T13:37:55.499Z,30.10
2018-06-21T13:40:23.072Z,30.00
2018-06-21T13:42:50.616Z,29.80
2018-06-21T13:45:18.219Z,29.60
2018-06-21T13:50:13.582Z,29.30
2018-06-21T13:52:41.298Z,29.10
2018-06-21T13:55:08.964Z,28.90
2018-06-21T13:57:36.577Z,28.80
2018-06-21T14:00:05.200Z,28.60
2018-06-21T14:02:32.811Z,28.40
2018-06-21T14:05:00.413Z,28.30
2018-06-21T14:07:28.040Z,28.20
2018-06-21T14:09:55.556Z,28.10
2018-06-21T14:12:23.119Z,28.00
2018-06-21T14:14:50.682Z,27.80
2018-06-21T14:17:18.320Z,27.70
2018-06-21T14:19:45.883Z,27.60
2018-06-21T14:22:13.471Z,27.40
2018-06-21T14:24:41.051Z,27.20
2018-06-21T14:27:08.605Z,27.00
2018-06-21T14:32:03.852Z,26.70
2018-06-21T14:34:31.494Z,26.50
2018-06-21T14:36:59.066Z,26.30
2018-06-21T14:39:26.690Z,26.10
2018-06-21T14:41:54.302Z,25.90
2018-06-21T14:44:21.859Z,25.80
2018-06-21T14:46:49.434Z,25.60
2018-06-21T14:49:17.008Z,25.50
2018-06-21T14:51:44.619Z,25.40
2018-06-21T14:54:12.200Z,25.20
2018-06-21T14:56:39.932Z,25.10
2018-06-21T14:59:07.524Z,25.00
2018-06-21T15:01:35.356Z,24.90
2018-06-21T15:04:02.950Z,24.70
2018-06-21T15:06:30.519Z,24.60
2018-06-21T15:08:58.169Z,24.50
2018-06-21T15:11:25.748Z,24.30
2018-06-21T15:13:53.363Z,24.20
2018-06-21T15:16:22.203Z,24.00
2018-06-21T15:18:49.751Z,23.80
2018-06-21T15:21:17.742Z,23.60
2018-06-21T15:23:45.385Z,23.30
2018-06-21T15:26:13.000Z,23.10
2018-06-21T15:28:40.948Z,22.80
2018-06-21T15:31:08.549Z,22.60
2018-06-21T15:33:36.110Z,22.40
2018-06-21T15:38:31.564Z,22.00
2018-06-21T15:40:59.322Z,21.80
2018-06-21T15:43:26.937Z,21.60
2018-06-21T15:45:54.596Z,21.40
2018-06-21T15:48:23.148Z,21.20
2018-06-21T15:50:50.752Z,21.10
2018-06-21T15:53:18.360Z,21.00
2018-06-21T15:58:13.709Z,20.80
2018-06-21T16:00:41.309Z,20.70
2018-06-21T16:03:08.931Z,20.70
2018-06-21T16:05:36.473Z,20.70
2018-06-21T16:08:04.144Z,20.60
2018-06-21T16:10:31.740Z,20.60
2018-06-21T16:12:59.299Z,20.60
2018-06-21T16:15:26.951Z,20.70
2018-06-21T16:17:54.564Z,20.70
2018-06-21T16:20:22.222Z,20.80
2018-06-21T16:22:49.928Z,20.80
2018-06-21T16:25:17.552Z,20.90
2018-06-21T16:30:12.965Z,21.20
2018-06-21T16:32:40.783Z,21.30
2018-06-21T16:35:08.420Z,21.40
2018-06-21T16:37:36.135Z,21.50
2018-06-21T16:40:04.132Z,21.60
2018-06-21T16:42:31.755Z,21.70
2018-06-21T16:44:59.401Z,21.80
2018-06-21T16:47:27.152Z,21.90
2018-06-21T16:49:54.759Z,21.90
2018-06-21T16:52:22.512Z,22.00
2018-06-21T16:54:50.128Z,22.10
2018-06-21T16:57:17.886Z,22.10
2018-06-21T16:59:45.656Z,22.20
2018-06-21T17:02:13.329Z,22.20
2018-06-21T17:04:40.898Z,22.30
2018-06-21T17:07:08.490Z,22.30
2018-06-21T17:09:36.139Z,22.40
2018-06-21T17:12:03.759Z,22.40
2018-06-21T17:14:31.376Z,22.40
2018-06-21T17:16:58.999Z,22.50
2018-06-21T17:19:26.807Z,22.50
2018-06-21T17:21:54.400Z,22.50
2018-06-21T17:26:50.265Z,22.40
2018-06-21T17:29:17.907Z,22.40
2018-06-21T17:34:13.193Z,22.30
2018-06-21T17:36:41.139Z,22.20
2018-06-21T17:39:09.862Z,22.20
2018-06-21T17:41:37.394Z,22.10
2018-06-21T17:44:05.132Z,22.10
2018-06-21T17:46:32.728Z,22.10
2018-06-21T17:49:00.369Z,22.00
2018-06-21T17:51:28.238Z,22.00
2018-06-21T17:53:55.802Z,21.90
2018-06-21T17:56:23.383Z,21.90
2018-06-21T17:58:51.008Z,21.90
2018-06-21T18:01:18.639Z,21.90
2018-06-21T18:03:46.215Z,21.90
2018-06-21T18:06:13.847Z,21.90
2018-06-21T18:08:41.528Z,22.00
2018-06-21T18:11:12.478Z,22.00
2018-06-21T18:13:41.264Z,21.90
2018-06-21T18:16:08.945Z,21.90
2018-06-21T18:18:36.854Z,21.90
2018-06-21T18:21:04.559Z,21.90
2018-06-21T18:25:59.779Z,21.80
2018-06-21T18:30:55.134Z,21.70
2018-06-21T18:33:22.816Z,21.70
2018-06-21T18:35:50.622Z,21.60
2018-06-21T18:38:18.374Z,21.50
2018-06-21T18:40:45.964Z,21.50
2018-06-21T18:43:14.350Z,21.40
2018-06-21T18:45:42.238Z,21.30
2018-06-21T18:48:09.854Z,21.30
2018-06-21T18:50:37.521Z,21.20
2018-06-21T18:53:05.252Z,21.20
2018-06-21T18:55:32.864Z,21.10
2018-06-21T18:58:00.528Z,21.10
2018-06-21T19:00:28.139Z,21.00
2018-06-21T19:02:55.840Z,20.90
2018-06-21T19:05:23.493Z,20.80
2018-06-21T19:07:56.878Z,20.80
2018-06-21T19:10:30.384Z,20.70
2018-06-21T19:12:57.995Z,20.60
2018-06-21T19:15:25.637Z,20.50
2018-06-21T19:17:53.240Z,20.50
2018-06-21T19:20:20.913Z,20.40
2018-06-21T19:22:48.790Z,20.30
2018-06-21T19:25:16.403Z,20.20
2018-06-21T19:27:44.049Z,20.10
2018-06-21T19:30:11.748Z,20.10
2018-06-21T19:32:39.490Z,19.90
2018-06-21T19:35:07.069Z,19.90
2018-06-21T19:37:34.673Z,19.90
2018-06-21T19:40:02.332Z,19.80
2018-06-21T19:42:29.939Z,19.70
2018-06-21T19:44:57.548Z,19.70
2018-06-21T19:47:25.173Z,19.60
2018-06-21T19:49:52.758Z,19.50
2018-06-21T19:52:20.358Z,19.50
2018-06-21T19:54:47.966Z,19.40
2018-06-21T19:57:15.565Z,19.40
2018-06-21T19:59:43.170Z,19.30
2018-06-21T20:02:10.763Z,19.30
2018-06-21T20:04:38.440Z,19.20
2018-06-21T20:12:01.715Z,19.10
2018-06-21T20:14:29.844Z,19.10
2018-06-21T20:16:57.435Z,19.00
2018-06-21T20:19:25.043Z,19.00
2018-06-21T20:21:52.608Z,19.00
2018-06-21T20:24:20.200Z,18.90
2018-06-21T20:26:47.828Z,18.90
2018-06-21T20:29:18.774Z,18.90
2018-06-21T20:31:46.427Z,18.80
2018-06-21T20:34:14.172Z,18.80
2018-06-21T20:39:10.253Z,18.70
2018-06-21T20:41:38.156Z,18.60
2018-06-21T20:46:33.992Z,18.60
2018-06-21T20:49:01.761Z,18.50
2018-06-21T20:51:29.387Z,18.50
2018-06-21T20:53:57.029Z,18.40
2018-06-21T20:58:52.392Z,18.30
2018-06-21T21:01:20.020Z,18.20
2018-06-21T21:03:47.664Z,18.20
2018-06-21T21:08:42.947Z,18.10
2018-06-21T21:11:10.551Z,18.00
2018-06-21T21:13:38.171Z,18.00
2018-06-21T21:16:05.836Z,17.90
2018-06-21T21:18:33.436Z,17.80
2018-06-21T21:21:01.106Z,17.80
2018-06-21T21:23:29.204Z,17.70
2018-06-21T21:25:56.840Z,17.70
2018-06-21T21:28:24.431Z,17.60
2018-06-21T21:30:52.164Z,17.50
2018-06-21T21:33:19.927Z,17.50
2018-06-21T21:35:47.692Z,17.40
2018-06-21T21:38:15.329Z,17.40
2018-06-21T21:40:42.988Z,17.30
2018-06-21T21:43:10.610Z,17.30
2018-06-21T21:45:38.183Z,17.20
2018-06-21T21:48:06.048Z,17.20
2018-06-21T21:50:33.679Z,17.10
2018-06-21T21:53:02.679Z,17.10
2018-06-21T21:55:30.271Z,17.00
2018-06-21T21:57:58.823Z,17.00
2018-06-21T22:00:50.308Z,17.00
2018-06-21T22:03:18.135Z,16.90
2018-06-21T22:05:45.760Z,16.80
2018-06-21T22:08:13.357Z,16.80
2018-06-21T22:10:42.388Z,16.70
2018-06-21T22:13:10.250Z,16.50
2018-06-21T22:15:37.891Z,16.60
2018-06-21T22:18:05.676Z,16.60
2018-06-21T22:20:33.291Z,16.50
2018-06-21T22:23:00.911Z,16.50
2018-06-21T22:25:29.111Z,16.40
2018-06-21T22:27:57.700Z,16.40
2018-06-21T22:30:26.284Z,16.40
2018-06-21T22:32:54.054Z,16.30
2018-06-21T22:35:21.673Z,16.30
2018-06-21T22:37:49.761Z,16.20
2018-06-21T22:40:17.305Z,16.20
2018-06-21T22:42:45.174Z,16.10
2018-06-21T22:45:13.009Z,16.10
2018-06-21T22:47:40.618Z,16.10
2018-06-21T22:50:08.263Z,16.10
2018-06-21T22:52:35.906Z,16.00
2018-06-21T22:55:03.513Z,16.00
2018-06-21T22:57:31.251Z,16.00
2018-06-21T22:59:59.015Z,16.00
2018-06-21T23:02:26.657Z,15.90
2018-06-21T23:04:54.286Z,15.90
2018-06-21T23:09:50.111Z,15.90
2018-06-21T23:12:17.869Z,15.80
2018-06-21T23:14:45.587Z,15.80
2018-06-21T23:17:13.116Z,15.80
2018-06-21T23:19:40.717Z,15.80
2018-06-21T23:22:08.344Z,15.80
2018-06-21T23:24:35.932Z,15.70
2018-06-21T23:27:03.938Z,15.70
2018-06-21T23:29:31.516Z,15.70
2018-06-21T23:31:59.088Z,15.60
2018-06-21T23:34:26.708Z,15.60
2018-06-21T23:39:21.992Z,15.50
2018-06-21T23:41:49.594Z,15.50
2018-06-21T23:44:17.213Z,15.50
2018-06-21T23:46:44.765Z,15.40
2018-06-21T23:49:12.868Z,15.40
2018-06-21T23:51:40.470Z,15.40
2018-06-21T23:54:09.836Z,15.40
2018-06-21T23:56:37.812Z,15.30
2018-06-21T23:59:05.951Z,15.30
